Time;durP1;ratioP1;P1;durP2;ratioP2;P2;SDS_P1;SDS_P2;PMS_P1;PMS_P2;Temp;Humidity;BMP_temperature;BMP_pressure;BME280_temperature;BME280_humidity;BME280_pressure;Samples;Min_cycle;Max_cycle;Signal;HPM_P1;HPM_P2
2023/06/18 00:02:10;;;;;;;20.77;18.40;;;;;;;16.53;100.00;94568.00;5035638;28;20442;-77
2023/06/18 00:04:36;;;;;;;22.10;19.57;;;;;;;16.59;100.00;94567.28;5035566;28;20967;-79
2023/06/18 00:07:04;;;;;;;21.80;19.57;;;;;;;16.62;100.00;94564.28;5035689;28;20509;-78
2023/06/18 00:09:32;;;;;;;19.97;18.07;;;;;;;16.56;100.00;94565.81;5033426;28;20440;-77
2023/06/18 00:11:58;;;;;;;22.53;18.70;;;;;;;16.57;100.00;94564.81;5035617;28;20448;-78
2023/06/18 00:14:25;;;;;;;25.20;20.17;;;;;;;16.50;100.00;94563.88;5034892;28;20450;-77
2023/06/18 00:16:52;;;;;;;22.87;20.00;;;;;;;16.51;100.00;94565.50;5035159;28;20435;-78
2023/06/18 00:19:19;;;;;;;23.50;20.97;;;;;;;16.55;100.00;94566.81;5035057;28;20473;-77
2023/06/18 00:22:06;;;;;;;22.03;19.60;;;;;;;16.53;100.00;94566.16;5035187;28;20455;-77
2023/06/18 00:24:34;;;;;;;24.40;20.70;;;;;;;16.47;100.00;94561.53;5012588;28;20922;-78
2023/06/18 00:27:01;;;;;;;24.10;21.60;;;;;;;16.42;100.00;94558.59;5012938;28;20535;-79
2023/06/18 00:29:29;;;;;;;23.70;21.23;;;;;;;16.44;100.00;94561.88;5013093;28;20446;-77
2023/06/18 00:31:56;;;;;;;20.80;18.63;;;;;;;16.53;100.00;94574.09;5027898;28;20481;-78
2023/06/18 00:34:28;;;;;;;26.23;21.67;;;;;;;16.52;100.00;94566.34;5032562;28;20984;-77
2023/06/18 00:36:57;;;;;;;24.23;20.00;;;;;;;16.50;100.00;94563.88;5032860;28;20598;-78
2023/06/18 00:39:23;;;;;;;25.53;22.37;;;;;;;16.44;100.00;94561.88;5032363;28;20455;-79
2023/06/18 00:41:52;;;;;;;25.90;22.70;;;;;;;16.38;100.00;94565.25;5012645;28;20435;-78
2023/06/18 00:44:20;;;;;;;24.60;22.00;;;;;;;16.33;100.00;94567.59;5012652;28;20448;-78
2023/06/18 00:46:47;;;;;;;25.93;21.07;;;;;;;16.30;100.00;94565.28;5012685;28;20489;-78
2023/06/18 00:49:15;;;;;;;24.60;22.00;;;;;;;16.35;100.00;94566.41;5024222;28;20444;-77
2023/06/18 00:51:44;;;;;;;24.63;22.03;;;;;;;16.40;100.00;94563.25;5034686;28;20469;-78
2023/06/18 00:54:14;;;;;;;26.40;22.37;;;;;;;16.40;100.00;94565.88;5034325;28;20555;-78
2023/06/18 00:56:50;;;;;;;28.30;23.77;;;;;;;16.45;100.00;94558.25;5034242;28;20576;-78
2023/06/18 00:59:23;;;;;;;28.43;21.80;;;;;;;16.49;100.00;94564.03;5017202;28;20552;-77
2023/06/18 01:01:51;;;;;;;29.13;23.63;;;;;;;16.50;100.00;94558.56;5034305;28;20464;-78
2023/06/18 01:04:20;;;;;;;29.23;24.23;;;;;;;16.48;100.00;94559.72;5034409;28;20479;-77
2023/06/18 01:06:51;;;;;;;28.17;24.17;;;;;;;16.37;100.00;94550.34;5033749;28;20461;-78
2023/06/18 01:09:20;;;;;;;30.90;22.70;;;;;;;16.40;100.00;94558.75;5034528;28;20466;-77
2023/06/18 01:11:47;;;;;;;26.50;23.60;;;;;;;16.40;100.00;94550.81;5034362;28;20443;-78
2023/06/18 01:14:14;;;;;;;27.90;23.43;;;;;;;16.43;100.00;94561.06;5034182;28;20442;-78
2023/06/18 01:16:46;;;;;;;28.10;23.03;;;;;;;16.51;100.00;94564.69;5033923;28;20494;-77
2023/06/18 01:19:33;;;;;;;26.97;24.10;;;;;;;16.54;100.00;94562.50;5033673;28;20969;-78
2023/06/18 01:22:08;;;;;;;26.27;23.57;;;;;;;16.51;100.00;94565.50;5033799;28;20455;-78
2023/06/18 01:24:38;;;;;;;27.33;23.67;;;;;;;16.45;100.00;94552.94;5034455;28;20431;-77
2023/06/18 01:27:06;;;;;;;27.13;23.87;;;;;;;16.49;100.00;94564.03;5033625;28;20454;-78
2023/06/18 01:29:34;;;;;;;26.83;23.87;;;;;;;16.54;100.00;94562.50;5033563;28;20448;-78
2023/06/18 01:32:02;;;;;;;28.07;25.17;;;;;;;16.54;100.00;94567.00;5015083;28;20514;-78
2023/06/18 01:34:29;;;;;;;26.83;24.00;;;;;;;16.55;100.00;94568.63;5034067;28;20448;-77
2023/06/18 01:37:06;;;;;;;28.23;23.63;;;;;;;16.55;100.00;94568.63;5033652;28;20451;-76
2023/06/18 01:39:44;;;;;;;28.60;24.87;;;;;;;16.58;100.00;94571.75;5033604;28;20874;-77
2023/06/18 01:42:16;;;;;;;29.90;23.30;;;;;;;16.58;100.00;94563.00;5033729;28;20450;-77
2023/06/18 01:44:46;;;;;;;27.37;24.43;;;;;;;16.55;100.00;94566.81;5015456;28;20928;-77
2023/06/18 01:47:16;;;;;;;27.43;24.53;;;;;;;16.52;100.00;94558.41;5033271;28;20447;-77
2023/06/18 01:49:45;;;;;;;30.93;26.10;;;;;;;16.50;100.00;94555.91;5033794;28;20446;-78
2023/06/18 01:52:15;;;;;;;29.47;25.30;;;;;;;16.51;100.00;94562.88;5033920;28;20452;-78
2023/06/18 01:54:44;;;;;;;29.83;24.53;;;;;;;16.49;100.00;94564.03;5033589;28;20454;-77
2023/06/18 01:57:11;;;;;;;28.63;25.57;;;;;;;16.52;100.00;94563.69;5033568;28;20579;-77
2023/06/18 01:59:41;;;;;;;30.03;26.87;;;;;;;16.51;100.00;94562.88;5033747;28;20550;-77
2023/06/18 02:02:08;;;;;;;34.00;26.97;;;;;;;16.54;100.00;94567.00;5033900;28;20486;-78
2023/06/18 02:04:36;;;;;;;35.03;25.83;;;;;;;16.54;100.00;94573.09;5033366;28;20453;-78
2023/06/18 02:07:03;;;;;;;30.97;25.40;;;;;;;16.55;100.00;94569.47;5033309;28;21029;-78
2023/06/18 02:09:31;;;;;;;29.47;26.27;;;;;;;16.59;100.00;94567.28;5015236;28;20454;-78
2023/06/18 02:11:58;;;;;;;31.77;26.10;;;;;;;16.63;100.00;94574.72;5033710;28;20524;-78
2023/06/18 02:14:24;;;;;;;30.13;26.87;;;;;;;16.60;100.00;94577.72;5015079;28;20444;-77
2023/06/18 02:16:51;;;;;;;29.47;25.87;;;;;;;16.70;100.00;94573.03;5033991;28;20533;-77
2023/06/18 02:19:18;;;;;;;29.50;24.40;;;;;;;16.68;100.00;94567.09;5033327;28;20988;-78
2023/06/18 02:21:46;;;;;;;30.23;26.47;;;;;;;16.69;100.00;94571.38;5033399;28;20530;-76
2023/06/18 02:24:13;;;;;;;28.77;25.77;;;;;;;16.63;100.00;94565.94;5033243;28;20455;-77
2023/06/18 02:26:40;;;;;;;28.00;24.33;;;;;;;16.54;100.00;94567.81;5014965;28;20450;-78
2023/06/18 02:29:06;;;;;;;28.53;25.37;;;;;;;16.53;100.00;94573.28;5033547;28;20448;-77
2023/06/18 02:31:33;;;;;;;29.07;25.77;;;;;;;16.51;100.00;94565.50;5033514;28;20444;-78
2023/06/18 02:34:00;;;;;;;31.53;25.50;;;;;;;16.52;100.00;94575.09;5032831;28;20961;-76
2023/06/18 02:36:28;;;;;;;32.17;25.43;;;;;;;16.43;100.00;94561.06;5014738;28;20451;-78
2023/06/18 02:38:56;;;;;;;30.87;26.00;;;;;;;16.41;100.00;94572.84;4998783;28;20804;-78
2023/06/18 02:41:23;;;;;;;32.30;28.20;;;;;;;16.44;100.00;94572.47;5033074;28;20455;-77
2023/06/18 02:43:50;;;;;;;31.57;25.13;;;;;;;16.43;100.00;94574.31;5033273;28;20443;-78
2023/06/18 02:46:19;;;;;;;29.47;26.27;;;;;;;16.52;100.00;94572.47;5033157;28;20453;-76
2023/06/18 02:48:46;;;;;;;31.00;25.77;;;;;;;16.47;100.00;94581.91;5033707;28;20516;-78
2023/06/18 02:51:13;;;;;;;31.90;26.13;;;;;;;16.52;100.00;94585.72;5033341;28;20457;-79
2023/06/18 02:53:39;;;;;;;34.90;27.63;;;;;;;16.47;100.00;94588.03;5033588;28;20452;-74
2023/06/18 02:56:08;;;;;;;33.77;26.80;;;;;;;16.48;100.00;94588.84;5032975;28;20504;-77
2023/06/18 02:58:35;;;;;;;29.90;25.47;;;;;;;16.48;100.00;94583.56;5033169;28;20501;-78
2023/06/18 03:01:03;;;;;;;30.80;26.50;;;;;;;16.46;100.00;94586.38;5033152;28;20846;-79
2023/06/18 03:03:29;;;;;;;30.03;26.73;;;;;;;16.40;100.00;94587.06;5031238;28;20917;-78
2023/06/18 03:05:57;;;;;;;27.53;24.53;;;;;;;16.39;100.00;94588.91;5035974;28;20434;-77
2023/06/18 03:08:25;;;;;;;34.40;28.40;;;;;;;16.46;100.00;94596.16;5036945;28;20451;-77
2023/06/18 03:10:51;;;;;;;31.67;28.00;;;;;;;16.56;100.00;94596.78;5036541;28;20508;-77
2023/06/18 03:13:20;;;;;;;31.60;25.60;;;;;;;16.59;100.00;94596.44;5037063;28;20442;-77
2023/06/18 03:15:46;;;;;;;30.40;24.70;;;;;;;16.63;100.00;94592.44;5036391;28;20449;-77
2023/06/18 03:18:13;;;;;;;30.27;27.07;;;;;;;16.71;100.00;94595.06;5036109;28;20521;-77
2023/06/18 03:20:40;;;;;;;29.20;24.73;;;;;;;16.80;100.00;94598.50;5036729;28;20452;-77
2023/06/18 03:23:07;;;;;;;29.23;25.10;;;;;;;16.74;100.00;94592.06;5036449;28;20454;-77
2023/06/18 03:25:33;;;;;;;31.03;26.10;;;;;;;16.76;100.00;94598.00;5036456;28;20457;-77
2023/06/18 03:28:00;;;;;;;30.93;24.20;;;;;;;16.73;100.00;94588.56;5036526;28;20452;-77
2023/06/18 03:30:29;;;;;;;33.70;24.70;;;;;;;16.78;100.00;94600.50;5036232;28;20450;-75
2023/06/18 03:32:56;;;;;;;28.23;25.10;;;;;;;16.77;100.00;94602.31;5036380;28;20448;-77
2023/06/18 03:35:23;;;;;;;28.43;24.80;;;;;;;16.87;100.00;94607.38;5036407;28;20474;-78
2023/06/18 03:37:49;;;;;;;28.33;24.93;;;;;;;16.92;100.00;94602.38;5035994;28;20455;-78
2023/06/18 03:40:16;;;;;;;27.40;24.57;;;;;;;16.93;100.00;94604.84;5035895;28;20493;-76
2023/06/18 03:42:43;;;;;;;25.57;22.93;;;;;;;16.88;100.00;94601.91;5036144;28;20458;-78
2023/06/18 03:45:11;;;;;;;35.00;27.47;;;;;;;16.95;100.00;94602.03;5036260;28;20458;-76
2023/06/18 03:47:39;;;;;;;28.97;24.83;;;;;;;16.80;100.00;94603.81;5017647;28;20447;-77
2023/06/18 03:50:07;;;;;;;30.13;25.13;;;;;;;16.87;100.00;94604.75;5036052;28;20941;-78
2023/06/18 03:52:34;;;;;;;29.30;26.23;;;;;;;16.94;100.00;94605.69;4985458;28;20587;-78
2023/06/18 03:55:01;;;;;;;28.70;24.93;;;;;;;17.00;100.00;94604.97;5036313;28;20471;-78
2023/06/18 03:57:28;;;;;;;30.87;26.17;;;;;;;16.99;100.00;94608.63;5000989;28;21035;-78
2023/06/18 03:59:55;;;;;;;28.93;25.30;;;;;;;17.00;100.00;94603.16;5033973;28;20541;-79
2023/06/18 04:02:21;;;;;;;26.97;24.10;;;;;;;17.04;100.00;94607.09;5035915;28;20440;-78
2023/06/18 04:04:50;;;;;;;28.33;24.57;;;;;;;16.99;100.00;94613.94;5036272;28;20447;-78
2023/06/18 04:07:16;;;;;;;31.20;27.60;;;;;;;16.95;100.00;94612.63;5035925;28;20459;-77
2023/06/18 04:09:43;;;;;;;28.07;24.93;;;;;;;16.93;100.00;94604.03;5035823;28;20456;-78
2023/06/18 04:12:11;;;;;;;32.00;24.97;;;;;;;16.95;100.00;94607.34;5035927;28;20504;-77
2023/06/18 04:14:37;;;;;;;29.30;24.80;;;;;;;17.00;100.00;94615.56;5033597;28;20436;-79
2023/06/18 04:17:05;;;;;;;30.10;26.97;;;;;;;17.01;100.00;94617.22;5034883;28;20447;-78
2023/06/18 04:19:31;;;;;;;25.67;22.87;;;;;;;17.10;100.00;94618.84;5035565;28;21103;-77
2023/06/18 04:22:00;;;;;;;30.40;24.10;;;;;;;17.50;100.00;94617.69;5035508;28;20448;-76
2023/06/18 04:24:26;;;;;;;26.27;23.50;;;;;;;17.94;100.00;94620.47;5035333;28;20452;-77
2023/06/18 04:26:53;;;;;;;25.40;22.70;;;;;;;18.27;100.00;94617.47;5035123;28;20451;-77
2023/06/18 04:29:20;;;;;;;23.60;20.33;;;;;;;18.66;100.00;94621.66;5053753;28;20515;-76
2023/06/18 04:31:47;;;;;;;29.23;22.27;;;;;;;19.04;100.00;94633.75;5055070;28;20442;-75
2023/06/18 04:34:14;;;;;;;24.27;21.63;;;;;;;19.27;100.00;94627.44;5055006;28;20425;-76
2023/06/18 04:36:41;;;;;;;24.03;21.63;;;;;;;19.43;100.00;94627.22;5054797;28;20937;-77
2023/06/18 04:39:09;;;;;;;28.33;20.70;;;;;;;19.64;100.00;94627.19;5054894;28;20572;-77
2023/06/18 04:41:36;;;;;;;25.27;22.87;;;;;;;19.82;100.00;94633.91;5054864;28;20442;-76
2023/06/18 04:44:02;;;;;;;22.37;20.13;;;;;;;20.06;100.00;94634.31;5054734;28;20447;-78
2023/06/18 04:46:29;;;;;;;22.10;19.53;;;;;;;20.23;100.00;94642.81;5055622;28;20427;-77
2023/06/18 04:48:59;;;;;;;24.33;20.00;;;;;;;20.40;100.00;94640.69;5054565;28;20435;-77
2023/06/18 04:51:26;;;;;;;21.70;19.43;;;;;;;20.56;100.00;94643.06;5042948;28;20521;-77
2023/06/18 06:44:24;;;;;;;24.07;21.67;;;;;;;20.11;100.00;94749.09;5117386;27;20561;-82
2023/06/18 06:46:50;;;;;;;23.57;21.03;;;;;;;20.00;100.00;94752.28;5111720;28;20453;-82
2023/06/18 06:49:17;;;;;;;22.57;20.30;;;;;;;19.98;100.00;94754.31;5075550;28;20510;-83
2023/06/18 07:41:14;;;;;;;22.03;19.40;;;;;;;20.35;100.00;94777.19;5093434;27;20408;-82
2023/06/18 07:43:41;;;;;;;20.23;17.87;;;;;;;20.48;100.00;94786.31;5090538;28;20445;-83
2023/06/18 07:46:08;;;;;;;22.80;18.53;;;;;;;20.57;100.00;94786.00;5073250;28;20440;-86
2023/06/18 07:48:35;;;;;;;19.87;17.20;;;;;;;20.57;100.00;94791.34;5081210;28;20966;-84
2023/06/18 07:51:03;;;;;;;22.50;20.20;;;;;;;20.42;100.00;94786.06;5090525;28;20491;-84
2023/06/18 07:53:31;;;;;;;20.03;17.97;;;;;;;20.37;100.00;94788.47;5026253;28;20457;-84
2023/06/18 07:55:58;;;;;;;21.03;18.53;;;;;;;20.22;100.00;94789.56;5090463;28;20444;-86
2023/06/18 07:58:26;;;;;;;22.27;19.97;;;;;;;20.20;100.00;94781.75;5082986;28;20442;-86
2023/06/18 08:00:53;;;;;;;21.20;18.98;;;;;;;20.28;100.00;94802.13;5078348;28;20438;-86
2023/06/18 08:03:20;;;;;;;20.97;18.80;;;;;;;20.31;100.00;94797.25;5070060;28;20200;-84
2023/06/18 08:05:46;;;;;;;19.80;18.00;;;;;;;20.28;100.00;94804.78;5082730;28;20471;-87
2023/06/18 08:08:13;;;;;;;21.03;19.03;;;;;;;20.40;100.00;94806.78;5083826;28;20795;-87
2023/06/18 08:10:40;;;;;;;23.53;17.10;;;;;;;20.37;100.00;94807.13;5100435;28;20559;-85
2023/06/18 08:13:07;;;;;;;23.93;18.97;;;;;;;20.36;100.00;94812.66;5100765;28;20441;-84
2023/06/18 08:15:36;;;;;;;21.67;18.73;;;;;;;20.37;100.00;94800.97;5103589;28;20858;-86
2023/06/18 08:18:02;;;;;;;20.67;16.80;;;;;;;20.34;100.00;94809.34;5092482;28;20783;-87
2023/06/18 08:20:29;;;;;;;22.13;17.87;;;;;;;20.24;100.00;94817.69;5090192;28;20437;-85
2023/06/18 08:22:56;;;;;;;20.47;18.47;;;;;;;20.24;100.00;94814.16;5038657;28;20469;-85
2023/06/18 08:25:23;;;;;;;22.00;19.67;;;;;;;20.22;100.00;94809.03;5089849;28;20427;-87
2023/06/18 08:27:50;;;;;;;21.60;17.70;;;;;;;20.23;100.00;94815.19;5089918;28;20447;-87
2023/06/18 08:30:16;;;;;;;24.33;17.87;;;;;;;20.18;100.00;94823.75;5080049;28;20481;-85
2023/06/18 08:32:45;;;;;;;27.80;20.60;;;;;;;20.11;100.00;94822.88;5069688;28;20826;-86
2023/06/18 08:35:12;;;;;;;29.27;18.87;;;;;;;20.10;100.00;94830.03;5069614;28;20435;-86
2023/06/18 08:37:38;;;;;;;22.73;18.43;;;;;;;20.11;100.00;94820.22;5070028;28;20457;-87
2023/06/18 08:40:07;;;;;;;18.60;16.80;;;;;;;20.06;100.00;94820.78;5068468;28;20482;-87
2023/06/18 08:45:58;;;;;;;20.17;18.23;;;;;;;20.01;100.00;94823.19;5059572;28;20466;-84
2023/06/18 08:48:28;;;;;;;18.07;16.27;;;;;;;19.96;100.00;94824.78;5056009;28;20451;-84
2023/06/18 08:51:00;;;;;;;20.47;18.27;;;;;;;20.17;100.00;94829.28;5056243;28;20479;-84
2023/06/18 08:53:36;;;;;;;24.47;19.33;;;;;;;20.26;100.00;94820.97;5056084;28;20935;-84
2023/06/18 08:56:05;;;;;;;21.13;19.00;;;;;;;20.28;100.00;94832.28;5055991;28;20493;-84
2023/06/18 08:58:34;;;;;;;19.07;17.27;;;;;;;20.06;100.00;94825.28;5038986;28;20833;-84
2023/06/18 09:01:02;;;;;;;22.67;20.20;;;;;;;20.20;100.00;94827.03;5055591;28;20908;-83
2023/06/18 09:03:31;;;;;;;24.60;19.30;;;;;;;20.30;100.00;94827.56;5055890;28;20436;-83
2023/06/18 09:05:58;;;;;;;19.93;17.83;;;;;;;20.29;100.00;94825.91;5055653;28;20534;-83
2023/06/18 09:08:25;;;;;;;18.37;16.57;;;;;;;20.22;100.00;94830.34;5055863;28;20450;-84
2023/06/18 09:10:55;;;;;;;19.77;17.70;;;;;;;20.37;100.00;94825.78;5055766;28;20475;-83
2023/06/18 09:13:22;;;;;;;17.80;16.00;;;;;;;20.30;100.00;94829.41;5055487;28;20787;-83
2023/06/18 09:15:49;;;;;;;24.03;21.67;;;;;;;20.82;100.00;94826.38;5056590;28;20457;-82
2023/06/18 09:18:16;;;;;;;26.33;18.53;;;;;;;21.21;100.00;94831.16;5055835;28;20509;-80
2023/06/18 09:20:45;;;;;;;17.10;15.47;;;;;;;21.55;100.00;94838.31;5055667;28;20461;-81
2023/06/18 09:23:12;;;;;;;16.97;15.33;;;;;;;21.77;100.00;94838.22;5055245;28;20919;-81
2023/06/18 09:25:38;;;;;;;16.87;15.17;;;;;;;21.76;97.47;94847.25;5056184;28;20448;-85
2023/06/18 09:28:05;;;;;;;16.73;14.97;;;;;;;21.49;93.67;94851.66;5055376;28;20901;-83
2023/06/18 09:30:32;;;;;;;16.57;14.70;;;;;;;21.36;95.36;94855.06;5055466;28;20573;-84
2023/06/18 09:32:59;;;;;;;16.13;14.63;;;;;;;21.25;97.18;94836.94;5055534;28;20441;-84
2023/06/18 09:35:27;;;;;;;17.80;14.10;;;;;;;21.24;97.25;94845.97;5055148;28;20911;-84
2023/06/18 09:37:55;;;;;;;17.60;15.90;;;;;;;21.12;96.43;94837.66;5055528;28;20536;-84
2023/06/18 09:47:11;;;;;;;18.33;16.33;;;;;;;20.73;99.35;94838.19;5054076;28;20482;-85
2023/06/18 09:49:39;;;;;;;20.40;17.40;;;;;;;20.60;98.77;94843.44;5055474;28;20476;-84
2023/06/18 09:52:08;;;;;;;17.67;15.87;;;;;;;20.50;98.76;94842.94;5054575;28;20961;-83
2023/06/18 09:54:41;;;;;;;21.87;17.93;;;;;;;20.29;99.12;94839.25;5055631;28;20475;-85
2023/06/18 09:57:09;;;;;;;20.33;16.87;;;;;;;20.11;99.98;94839.69;5055419;28;20461;-85
2023/06/18 09:59:36;;;;;;;19.87;15.77;;;;;;;20.04;100.00;94837.97;5056487;28;20519;-84
2023/06/18 10:02:03;;;;;;;16.30;14.60;;;;;;;20.04;100.00;94838.78;5054668;28;21060;-84
2023/06/18 10:04:32;;;;;;;19.67;14.90;;;;;;;20.02;100.00;94840.00;5055103;28;20785;-84
2023/06/18 10:07:00;;;;;;;17.80;16.03;;;;;;;20.00;100.00;94842.84;5019441;28;20448;-84
2023/06/18 10:13:07;;;;;;;14.60;13.03;;;;;;;20.07;100.00;94840.25;5034589;28;20439;-84
2023/06/18 10:15:36;;;;;;;13.93;12.73;;;;;;;20.07;99.35;94842.91;5035089;28;20433;-84
2023/06/18 10:18:05;;;;;;;18.73;12.30;;;;;;;20.17;100.00;94838.09;5034741;28;20972;-84
2023/06/18 10:20:34;;;;;;;14.17;12.87;;;;;;;20.28;100.00;94834.94;5034536;28;20443;-85
2023/06/18 10:23:35;;;;;;;17.00;13.73;;;;;;;20.48;100.00;94842.28;5034645;28;20439;-84
2023/06/18 10:26:03;;;;;;;13.20;12.00;;;;;;;20.61;99.62;94840.59;4983125;28;20448;-84
2023/06/18 10:28:33;;;;;;;14.00;12.30;;;;;;;20.74;99.12;94834.50;5033711;28;20452;-84
2023/06/18 10:31:00;;;;;;;16.17;12.67;;;;;;;20.86;97.66;94832.97;5034384;28;20488;-84
2023/06/18 10:33:28;;;;;;;12.70;11.43;;;;;;;20.97;96.85;94834.28;5034468;28;20451;-84
2023/06/18 10:35:55;;;;;;;13.60;12.30;;;;;;;20.95;95.45;94831.81;5034215;28;20444;-84
2023/06/18 10:53:35;;;;;;;13.27;12.07;;;;;;;21.12;96.01;94823.50;5050597;28;21261;-85
2023/06/18 10:56:03;;;;;;;14.60;12.70;;;;;;;21.24;98.20;94819.28;5033555;28;20448;-84
2023/06/18 10:58:33;;;;;;;15.33;12.73;;;;;;;21.49;100.00;94820.44;5033706;28;20441;-84
2023/06/18 11:01:00;;;;;;;12.53;11.30;;;;;;;21.40;93.16;94820.81;5034254;28;20752;-85
2023/06/18 11:03:34;;;;;;;11.30;10.30;;;;;;;21.40;93.31;94823.47;5033419;28;20438;-86
2023/06/18 11:09:22;;;;;;;14.60;11.60;;;;;;;21.36;96.39;94823.03;5032469;28;20491;-85
2023/06/18 11:11:51;;;;;;;13.23;11.87;;;;;;;21.31;93.71;94817.47;5033648;28;20444;-85
2023/06/18 11:14:21;;;;;;;13.13;11.83;;;;;;;21.37;95.70;94823.84;5033751;28;20433;-82
2023/06/18 11:17:09;;;;;;;13.40;11.43;;;;;;;21.41;92.89;94828.63;5033885;28;20443;-84
2023/06/18 11:19:36;;;;;;;17.50;15.20;;;;;;;21.53;96.34;94827.03;5034662;28;20791;-85
2023/06/18 11:25:26;;;;;;;11.47;10.27;;;;;;;22.06;92.20;94821.88;5033169;28;20461;-85
2023/06/18 11:27:58;;;;;;;16.17;14.53;;;;;;;22.42;94.78;94823.38;5033681;28;20460;-84
2023/06/18 11:30:25;;;;;;;13.47;12.00;;;;;;;22.57;93.25;94821.34;5033360;28;20488;-85
2023/06/18 11:32:52;;;;;;;12.93;11.63;;;;;;;22.67;89.66;94821.75;5033325;28;20436;-87
2023/06/18 11:35:19;;;;;;;10.83;9.80;;;;;;;22.75;87.15;94813.50;5033818;28;20794;-85
2023/06/18 11:37:46;;;;;;;16.83;10.57;;;;;;;22.69;87.16;94811.66;4983094;28;20452;-84
2023/06/18 11:40:13;;;;;;;12.70;11.37;;;;;;;22.86;90.97;94820.13;5033815;28;20472;-84
2023/06/18 11:42:48;;;;;;;15.63;13.50;;;;;;;22.79;92.43;94814.72;5033074;28;20452;-85
2023/06/18 11:45:17;;;;;;;11.40;9.80;;;;;;;22.67;86.62;94816.41;5033613;28;20433;-80
2023/06/18 11:51:05;;;;;;;9.87;8.93;;;;;;;22.30;87.20;94815.16;5027809;28;20533;-84
2023/06/18 11:53:32;;;;;;;10.43;9.43;;;;;;;22.17;87.92;94815.13;5023563;28;20446;-84
2023/06/18 11:55:59;;;;;;;13.70;12.13;;;;;;;22.11;90.29;94806.06;5031983;28;20444;-83
2023/06/18 11:58:26;;;;;;;17.83;13.57;;;;;;;22.21;97.30;94806.47;5040991;28;20455;-82
2023/06/18 12:00:57;;;;;;;17.37;11.80;;;;;;;22.62;96.35;94804.69;5051833;28;20482;-82
2023/06/18 12:03:24;;;;;;;9.43;8.63;;;;;;;22.73;87.93;94806.72;5043078;28;20492;-82
2023/06/18 12:05:51;;;;;;;9.53;8.70;;;;;;;22.82;87.24;94802.81;4981364;28;20445;-82
2023/06/18 12:08:18;;;;;;;9.10;8.27;;;;;;;22.88;87.18;94801.19;5037300;28;21021;-81
2023/06/18 12:10:45;;;;;;;10.00;9.10;;;;;;;22.95;88.14;94794.78;5032311;28;20503;-82
2023/06/18 12:13:24;;;;;;;10.70;9.63;;;;;;;22.98;86.43;94798.91;5037927;28;20443;-81
2023/06/18 12:15:58;;;;;;;8.80;8.00;;;;;;;22.94;86.05;94784.31;5052648;28;20440;-81
2023/06/18 12:18:29;;;;;;;9.00;8.27;;;;;;;23.00;87.29;94784.28;5056213;28;20452;-81
2023/06/18 12:20:56;;;;;;;9.43;8.53;;;;;;;23.06;88.41;94774.59;5056173;28;20447;-82
2023/06/18 12:23:24;;;;;;;9.73;8.90;;;;;;;23.06;87.72;94766.56;5056371;28;20444;-81
2023/06/18 12:25:51;;;;;;;10.13;9.13;;;;;;;23.13;87.99;94756.63;5057219;28;20449;-82
2023/06/18 12:28:23;;;;;;;10.53;9.30;;;;;;;23.20;88.21;94760.16;5050391;28;20513;-82
2023/06/18 12:30:52;;;;;;;8.80;8.00;;;;;;;23.26;86.84;94761.97;5036348;28;20584;-81
2023/06/18 12:33:20;;;;;;;8.50;7.60;;;;;;;23.22;84.63;94763.44;5036012;28;20532;-82
2023/06/18 12:35:50;;;;;;;9.63;8.70;;;;;;;23.10;84.52;94757.88;5035604;28;20449;-81
2023/06/18 12:38:17;;;;;;;9.93;9.13;;;;;;;23.04;86.15;94757.91;5040810;28;20449;-81
2023/06/18 12:40:49;;;;;;;12.33;9.20;;;;;;;23.01;86.03;94748.44;5055535;28;20455;-82
2023/06/18 12:43:18;;;;;;;10.17;9.07;;;;;;;23.01;88.20;94745.78;5049897;28;20438;-83
2023/06/18 12:45:47;;;;;;;9.97;9.07;;;;;;;22.98;85.69;94759.59;5035333;28;20450;-83
2023/06/18 12:48:16;;;;;;;13.17;8.87;;;;;;;22.93;84.89;94751.38;5042643;28;20503;-85
2023/06/18 12:50:46;;;;;;;10.17;7.97;;;;;;;22.95;86.62;94745.81;5055140;28;20493;-83
2023/06/18 12:53:18;;;;;;;10.00;9.10;;;;;;;22.94;84.55;94746.84;5054660;28;20815;-84
2023/06/18 12:55:45;;;;;;;8.17;7.37;;;;;;;22.95;85.65;94746.63;5036497;28;20505;-84
2023/06/18 12:58:17;;;;;;;8.73;7.83;;;;;;;22.98;85.59;94753.41;5038741;28;20532;-84
2023/06/18 13:00:44;;;;;;;9.30;8.40;;;;;;;22.96;84.56;94750.13;5055429;28;20820;-84
2023/06/18 13:03:11;;;;;;;11.10;8.50;;;;;;;23.08;85.61;94751.94;5055004;28;20801;-85
2023/06/18 13:05:38;;;;;;;9.70;8.67;;;;;;;23.17;86.49;94748.00;5055341;28;20832;-84
2023/06/18 13:08:12;;;;;;;9.77;7.63;;;;;;;23.18;82.71;94746.16;5053087;28;20445;-84
2023/06/18 13:10:39;;;;;;;11.50;7.93;;;;;;;23.12;81.87;94739.75;5034864;28;20489;-84
2023/06/18 13:13:05;;;;;;;9.17;8.03;;;;;;;23.15;82.33;94741.22;5034804;28;20462;-85
2023/06/18 13:15:32;;;;;;;9.70;8.10;;;;;;;23.23;85.38;94729.44;5039893;28;20449;-84
2023/06/18 13:17:59;;;;;;;14.27;8.70;;;;;;;23.34;84.94;94736.81;5059898;28;20453;-84
2023/06/18 13:20:26;;;;;;;9.40;8.60;;;;;;;23.43;83.09;94736.38;5076138;28;20436;-83
2023/06/18 13:22:53;;;;;;;9.30;8.13;;;;;;;23.46;83.45;94735.13;5079251;28;20480;-84
2023/06/18 13:25:21;;;;;;;9.17;8.27;;;;;;;23.58;83.79;94724.56;5079267;28;20461;-84
2023/06/18 13:27:48;;;;;;;9.80;8.20;;;;;;;23.62;81.75;94731.97;5079160;28;20438;-84
2023/06/18 13:30:15;;;;;;;10.17;9.10;;;;;;;23.59;83.39;94729.72;5060325;28;20449;-83
2023/06/18 13:32:42;;;;;;;11.93;8.33;;;;;;;23.47;84.32;94734.09;5059680;28;20469;-82
2023/06/18 13:35:09;;;;;;;8.90;8.10;;;;;;;23.17;84.87;94731.94;5059603;28;20424;-83
2023/06/18 13:37:36;;;;;;;10.00;9.20;;;;;;;23.06;85.65;94734.44;5059440;28;20469;-84
2023/06/18 13:40:03;;;;;;;10.00;9.17;;;;;;;23.00;87.09;94732.59;5059521;28;20439;-82
2023/06/18 13:42:31;;;;;;;10.37;9.27;;;;;;;23.00;87.43;94735.28;5058721;28;20460;-84
2023/06/18 13:44:58;;;;;;;9.63;8.70;;;;;;;22.98;87.03;94732.00;5038043;28;20429;-84
2023/06/18 13:47:25;;;;;;;9.33;8.53;;;;;;;23.00;85.74;94735.28;5035728;28;20438;-84
2023/06/18 13:49:54;;;;;;;16.10;9.50;;;;;;;23.16;86.37;94729.47;5055115;28;20456;-82
2023/06/18 13:52:21;;;;;;;19.47;8.97;;;;;;;23.27;85.69;94734.16;5004720;28;20465;-82
2023/06/18 13:54:48;;;;;;;8.90;8.13;;;;;;;23.36;84.43;94735.56;5054863;28;20966;-81
2023/06/18 13:57:15;;;;;;;13.90;8.40;;;;;;;23.40;84.01;94739.44;5055398;28;20457;-81
2023/06/18 13:59:43;;;;;;;8.90;8.10;;;;;;;23.38;82.91;94752.22;5004208;28;20539;-81
2023/06/18 14:02:12;;;;;;;9.80;8.90;;;;;;;23.43;83.98;94755.13;5004106;28;20500;-81
2023/06/18 14:04:39;;;;;;;9.10;8.30;;;;;;;23.37;81.02;94761.31;5055039;28;20502;-83
2023/06/18 14:07:18;;;;;;;10.70;8.70;;;;;;;23.30;80.99;94752.47;5054580;28;20436;-82
2023/06/18 14:09:45;;;;;;;10.10;8.43;;;;;;;23.34;81.27;94753.69;5054858;28;20536;-83
2023/06/18 14:12:15;;;;;;;8.13;7.43;;;;;;;23.36;81.49;94740.91;5051727;28;20482;-83
2023/06/18 14:14:44;;;;;;;8.00;7.30;;;;;;;23.44;82.69;94734.50;5054228;28;20448;-83
2023/06/18 14:17:14;;;;;;;8.53;7.83;;;;;;;23.57;81.37;94741.69;5055095;28;20996;-84
2023/06/18 14:19:41;;;;;;;15.30;7.77;;;;;;;23.56;80.59;94740.03;5054499;28;20437;-84
2023/06/18 14:22:08;;;;;;;8.53;7.83;;;;;;;23.48;79.90;94749.13;5055088;28;20445;-83
2023/06/18 14:24:35;;;;;;;7.43;6.73;;;;;;;23.38;80.98;94749.56;5054366;28;20455;-84
2023/06/18 14:27:06;;;;;;;7.90;7.10;;;;;;;23.34;79.54;94753.69;5054251;28;20480;-84
2023/06/18 14:29:33;;;;;;;8.27;7.23;;;;;;;23.18;79.87;94754.19;5004383;28;20924;-83
2023/06/18 15:02:55;;;;;;;12.03;9.47;;;;;;;22.02;91.69;94764.50;5050592;28;20466;-82
2023/06/18 15:05:21;;;;;;;9.33;8.27;;;;;;;21.84;95.62;94774.94;5053445;28;20441;-82
2023/06/18 15:07:48;;;;;;;11.83;10.20;;;;;;;21.62;99.20;94779.59;5053754;28;20444;-81
2023/06/18 15:10:15;;;;;;;12.83;11.47;;;;;;;21.50;100.00;94773.19;5054772;28;20443;-81